Biloxi, Mississippi
Current Conditions -  °F | °C
As of 9:58 PM on Saturday 20 Dec 2014 (Local Time) from KBIX Reporting Station
Overcast Overcast  
Wind Chill: 51°   Ceiling: 1200
Heat Index: 51°   Visibility: 10mi
Dew Point: 48°   Wind: 13mph
Humidity: 90%   Direction: 40°NE
Pressure: 30.14"   Gusts: NA
Location:  30.4°N, 88.97°W
Report Text: KBIX 210358Z AUTO 04011KT 10SM OVC012 11/09 A3014 RMK AO2 SLP210 T01070091
Loading
Personal Weather Stations






























Interactive Weather Map New forecast layout! Learn more

10-Day Weather Forecast

Advertisements
Track Severe Weather on mobile